Time;durP1;ratioP1;P1;durP2;ratioP2;P2;SDS_P1;SDS_P2;PMS_P1;PMS_P2;Temp;Humidity;BMP_temperature;BMP_pressure;BME280_temperature;BME280_humidity;BME280_pressure;Samples;Min_cycle;Max_cycle;Signal;HPM_P1;HPM_P2
2023/06/01 00:00:16;;;;;;;;;;;12.60;99.90;;;;;;5087207;28;19920;-69
2023/06/01 00:02:41;;;;;;;;;;;12.60;99.90;;;;;;5089688;28;20460;-68
2023/06/01 00:05:07;;;;;;;;;;;12.60;99.90;;;;;;5095047;28;19920;-68
2023/06/01 00:07:32;;;;;;;;;;;12.60;99.90;;;;;;5094842;28;19932;-69
2023/06/01 00:09:59;;;;;;;;;;;12.60;99.90;;;;;;5082757;28;19920;-68
2023/06/01 00:12:25;;;;;;;;;;;12.60;99.90;;;;;;5089877;28;19970;-68
2023/06/01 00:14:50;;;;;;;;;;;12.60;99.90;;;;;;5093971;28;19967;-69
2023/06/01 00:17:16;;;;;;;;;;;12.60;99.90;;;;;;5085400;28;19927;-67
2023/06/01 00:19:44;;;;;;;;;;;12.60;99.90;;;;;;5085623;28;19920;-68
2023/06/01 00:22:10;;;;;;;;;;;12.60;99.90;;;;;;5095169;28;19924;-69
2023/06/01 00:24:36;;;;;;;;;;;12.50;99.90;;;;;;5095149;28;19927;-69
2023/06/01 00:27:01;;;;;;;;;;;12.60;99.90;;;;;;5079047;28;19969;-69
2023/06/01 00:29:27;;;;;;;;;;;12.60;99.90;;;;;;5093965;28;19927;-67
2023/06/01 00:31:52;;;;;;;;;;;12.60;99.90;;;;;;5093572;28;19920;-69
2023/06/01 00:34:18;;;;;;;;;;;12.50;99.90;;;;;;5081563;28;20401;-69
2023/06/01 00:36:43;;;;;;;;;;;12.50;99.90;;;;;;5083841;28;19930;-68
2023/06/01 00:39:09;;;;;;;;;;;12.50;99.90;;;;;;5094550;28;19924;-69
2023/06/01 00:41:34;;;;;;;;;;;12.50;99.90;;;;;;5105859;28;20381;-69
2023/06/01 00:44:00;;;;;;;;;;;12.50;99.90;;;;;;5085162;28;19927;-68
2023/06/01 00:46:26;;;;;;;;;;;12.40;99.90;;;;;;5093951;28;19924;-69
2023/06/01 00:48:53;;;;;;;;;;;12.40;99.90;;;;;;5094169;28;20290;-68
2023/06/01 00:51:19;;;;;;;;;;;12.40;99.90;;;;;;5082225;28;19974;-69
2023/06/01 00:53:45;;;;;;;;;;;12.40;99.90;;;;;;5093921;28;19924;-69
2023/06/01 00:56:13;;;;;;;;;;;12.40;99.90;;;;;;5092949;28;19943;-69
2023/06/01 00:58:39;;;;;;;;;;;12.30;99.90;;;;;;5087156;28;19927;-69
2023/06/01 01:01:05;;;;;;;;;;;12.30;99.90;;;;;;5084041;28;19923;-69
2023/06/01 01:03:31;;;;;;;;;;;12.30;99.90;;;;;;5088157;28;19969;-68
2023/06/01 01:06:11;;;;;;;;;;;12.30;99.90;;;;;;5090481;28;19992;-69
2023/06/01 01:08:46;;;;;;;;;;;12.30;99.90;;;;;;5087783;28;20084;-68
2023/06/01 01:11:23;;;;;;;;;;;12.20;99.90;;;;;;5086552;28;20425;-69
2023/06/01 01:14:05;;;;;;;;;;;12.20;99.90;;;;;;5094001;28;19920;-68
2023/06/01 01:16:49;;;;;;;;;;;12.10;99.90;;;;;;5090938;28;19967;-68
2023/06/01 01:19:41;;;;;;;;;;;12.20;99.90;;;;;;5091455;28;20082;-68
2023/06/01 01:22:17;;;;;;;;;;;12.20;99.90;;;;;;5085249;28;20286;-69
2023/06/01 01:24:48;;;;;;;;;;;12.20;99.90;;;;;;5080312;28;19920;-69
2023/06/01 01:27:24;;;;;;;;;;;12.10;99.90;;;;;;5085043;28;19924;-68
2023/06/01 01:29:51;;;;;;;;;;;12.20;99.90;;;;;;5092419;28;19924;-66
2023/06/01 01:32:17;;;;;;;;;;;12.20;99.90;;;;;;5093814;28;19920;-68
2023/06/01 01:34:44;;;;;;;;;;;12.10;99.90;;;;;;5080628;28;19969;-65
2023/06/01 01:37:10;;;;;;;;;;;12.20;99.90;;;;;;5067426;28;19963;-65
2023/06/01 01:39:35;;;;;;;;;;;12.10;99.90;;;;;;5087855;28;19989;-67
2023/06/01 01:42:01;;;;;;;;;;;12.10;99.90;;;;;;5085883;28;19920;-66
2023/06/01 01:44:27;;;;;;;;;;;12.10;99.90;;;;;;5093199;28;20259;-66
2023/06/01 01:46:57;;;;;;;;;;;12.10;99.90;;;;;;5093241;28;20413;-66
2023/06/01 01:49:28;;;;;;;;;;;12.10;99.90;;;;;;5083395;28;20014;-66
2023/06/01 01:51:57;;;;;;;;;;;12.10;99.90;;;;;;5091101;28;20370;-67
2023/06/01 01:54:24;;;;;;;;;;;12.10;99.90;;;;;;5093287;28;19919;-66
2023/06/01 01:56:49;;;;;;;;;;;12.10;99.90;;;;;;5089473;28;19920;-66
2023/06/01 01:59:15;;;;;;;;;;;12.00;99.90;;;;;;5085005;28;19977;-66
2023/06/01 02:01:44;;;;;;;;;;;12.00;99.90;;;;;;5092818;28;20012;-66
2023/06/01 02:04:10;;;;;;;;;;;12.00;99.90;;;;;;5092787;28;19965;-66
2023/06/01 02:06:36;;;;;;;;;;;12.00;99.90;;;;;;5085976;28;20145;-66
2023/06/01 02:09:06;;;;;;;;;;;12.00;99.90;;;;;;5091837;28;20397;-66
2023/06/01 02:11:31;;;;;;;;;;;11.90;99.90;;;;;;5092947;28;19920;-66
2023/06/01 02:13:57;;;;;;;;;;;11.90;99.90;;;;;;5087831;28;19932;-66
2023/06/01 02:16:22;;;;;;;;;;;11.80;99.90;;;;;;5088620;28;19920;-68
2023/06/01 02:18:48;;;;;;;;;;;11.80;99.90;;;;;;5090777;28;19928;-66
2023/06/01 02:21:13;;;;;;;;;;;11.80;99.90;;;;;;5074897;28;20271;-65
2023/06/01 02:23:42;;;;;;;;;;;11.80;99.90;;;;;;5085606;28;19927;-66
2023/06/01 02:26:10;;;;;;;;;;;11.70;99.90;;;;;;5082485;28;19924;-66
2023/06/01 02:28:36;;;;;;;;;;;11.70;99.90;;;;;;5092123;28;19962;-67
2023/06/01 02:31:02;;;;;;;;;;;11.70;99.90;;;;;;5082065;28;19927;-66
2023/06/01 02:33:28;;;;;;;;;;;11.70;99.90;;;;;;5081393;28;19924;-66
2023/06/01 02:35:53;;;;;;;;;;;11.70;99.90;;;;;;5092409;28;19920;-67
2023/06/01 02:38:19;;;;;;;;;;;11.70;99.90;;;;;;5088716;28;19966;-66
2023/06/01 02:40:44;;;;;;;;;;;11.70;99.90;;;;;;5091564;28;20377;-66
2023/06/01 02:43:10;;;;;;;;;;;11.70;99.90;;;;;;5092050;28;19963;-66
2023/06/01 02:45:35;;;;;;;;;;;11.70;99.90;;;;;;5092061;28;19931;-67
2023/06/01 02:48:01;;;;;;;;;;;11.70;99.90;;;;;;5083922;28;19924;-66
2023/06/01 02:50:26;;;;;;;;;;;11.70;99.90;;;;;;5091873;28;19920;-66
2023/06/01 02:52:52;;;;;;;;;;;11.70;99.90;;;;;;5083616;28;20012;-66
2023/06/01 02:55:17;;;;;;;;;;;11.70;99.90;;;;;;5092420;28;19943;-66
2023/06/01 02:57:43;;;;;;;;;;;11.70;99.90;;;;;;5077400;28;19959;-66
2023/06/01 03:00:15;;;;;;;;;;;11.60;99.90;;;;;;5090557;28;20282;-67
2023/06/01 03:02:47;;;;;;;;;;;11.60;99.90;;;;;;5092566;28;19920;-66
2023/06/01 03:05:14;;;;;;;;;;;11.60;99.90;;;;;;5078046;28;20444;-65
2023/06/01 03:07:40;;;;;;;;;;;11.60;99.90;;;;;;5088473;28;19924;-70
2023/06/01 03:10:06;;;;;;;;;;;11.60;99.90;;;;;;5091061;28;19920;-65
2023/06/01 03:12:32;;;;;;;;;;;11.70;99.90;;;;;;5092102;28;20294;-65
2023/06/01 03:14:57;;;;;;;;;;;11.70;99.90;;;;;;5079069;28;19931;-67
2023/06/01 03:17:23;;;;;;;;;;;11.70;99.90;;;;;;5085948;28;20013;-66
2023/06/01 03:19:48;;;;;;;;;;;11.70;99.90;;;;;;5091905;28;19920;-68
2023/06/01 03:22:14;;;;;;;;;;;11.70;99.90;;;;;;5082967;28;19981;-65
2023/06/01 03:24:41;;;;;;;;;;;11.60;99.90;;;;;;5091523;28;19926;-69
2023/06/01 03:27:06;;;;;;;;;;;11.60;99.90;;;;;;5094385;28;19956;-66
2023/06/01 03:29:32;;;;;;;;;;;11.60;99.90;;;;;;5083184;28;19943;-66
2023/06/01 03:31:58;;;;;;;;;;;11.60;99.90;;;;;;5093523;28;19946;-66
2023/06/01 03:34:23;;;;;;;;;;;11.60;99.90;;;;;;5084126;28;19927;-66
2023/06/01 03:36:49;;;;;;;;;;;11.70;99.90;;;;;;5089892;28;19924;-67
2023/06/01 03:39:15;;;;;;;;;;;11.70;99.90;;;;;;5082824;28;19924;-66
2023/06/01 03:41:42;;;;;;;;;;;11.70;99.90;;;;;;5090785;28;20027;-67
2023/06/01 03:44:08;;;;;;;;;;;11.60;99.90;;;;;;5095269;28;20050;-69
2023/06/01 03:46:33;;;;;;;;;;;11.60;99.90;;;;;;5084080;28;20335;-67
2023/06/01 03:48:58;;;;;;;;;;;11.60;99.90;;;;;;5089605;28;19955;-68
2023/06/01 03:51:24;;;;;;;;;;;11.60;99.90;;;;;;5095418;28;19920;-68
2023/06/01 03:53:49;;;;;;;;;;;11.60;99.90;;;;;;5088215;28;20283;-68
2023/06/01 03:56:16;;;;;;;;;;;11.60;99.90;;;;;;5088376;28;19988;-68
2023/06/01 03:58:41;;;;;;;;;;;11.60;99.90;;;;;;5084979;28;19920;-68
2023/06/01 04:01:06;;;;;;;;;;;11.60;99.90;;;;;;5075424;28;19940;-68
2023/06/01 04:03:32;;;;;;;;;;;11.60;99.90;;;;;;5094370;28;20328;-68
2023/06/01 04:05:59;;;;;;;;;;;11.60;99.90;;;;;;5094884;28;19931;-69
2023/06/01 04:08:27;;;;;;;;;;;11.50;99.90;;;;;;5095131;28;20412;-68
2023/06/01 04:10:53;;;;;;;;;;;11.60;99.90;;;;;;5084993;28;19927;-68
2023/06/01 04:13:18;;;;;;;;;;;11.60;99.90;;;;;;5092465;28;19920;-68
2023/06/01 04:15:45;;;;;;;;;;;11.50;99.90;;;;;;5093497;28;20034;-68
2023/06/01 04:18:10;;;;;;;;;;;11.50;99.90;;;;;;5094723;28;20405;-68
2023/06/01 04:20:36;;;;;;;;;;;11.50;99.90;;;;;;5084634;28;19920;-69
2023/06/01 04:23:01;;;;;;;;;;;11.50;99.90;;;;;;5090045;28;19952;-68
2023/06/01 04:25:28;;;;;;;;;;;11.50;99.90;;;;;;5093373;28;19920;-68
2023/06/01 04:27:54;;;;;;;;;;;11.60;99.90;;;;;;5082170;28;19948;-69
2023/06/01 04:30:20;;;;;;;;;;;11.60;99.90;;;;;;5089690;28;20370;-68
2023/06/01 04:32:47;;;;;;;;;;;11.60;99.90;;;;;;5093335;28;19949;-69
2023/06/01 04:35:13;;;;;;;;;;;11.60;99.90;;;;;;5094587;28;20012;-68
2023/06/01 04:37:40;;;;;;;;;;;11.60;99.90;;;;;;5081502;28;19963;-67
2023/06/01 04:40:07;;;;;;;;;;;11.60;99.90;;;;;;5083752;28;19925;-67
2023/06/01 04:42:34;;;;;;;;;;;11.60;99.90;;;;;;5087379;28;19978;-68
2023/06/01 04:44:59;;;;;;;;;;;11.60;99.90;;;;;;5078663;28;19929;-68
2023/06/01 04:47:25;;;;;;;;;;;11.60;99.90;;;;;;5089698;28;19928;-68
2023/06/01 04:49:50;;;;;;;;;;;11.60;99.90;;;;;;5094133;28;19993;-66
2023/06/01 04:52:16;;;;;;;;;;;11.60;99.90;;;;;;5090843;28;19924;-66
2023/06/01 04:54:42;;;;;;;;;;;11.60;99.90;;;;;;5085234;28;19920;-66
2023/06/01 04:57:07;;;;;;;;;;;11.60;99.90;;;;;;5088167;28;20453;-66
2023/06/01 04:59:33;;;;;;;;;;;11.60;99.90;;;;;;5093923;28;20273;-65
2023/06/01 05:01:59;;;;;;;;;;;11.60;99.90;;;;;;5080137;28;19920;-66
2023/06/01 05:04:25;;;;;;;;;;;11.60;99.90;;;;;;5082307;28;20023;-66
2023/06/01 05:06:50;;;;;;;;;;;11.60;99.90;;;;;;5083757;28;19931;-66
2023/06/01 05:09:18;;;;;;;;;;;11.60;99.90;;;;;;5080961;28;19927;-67
2023/06/01 05:11:43;;;;;;;;;;;11.60;99.90;;;;;;5080372;28;19928;-65
2023/06/01 05:14:09;;;;;;;;;;;11.60;99.90;;;;;;5083569;28;19931;-65
2023/06/01 05:16:34;;;;;;;;;;;11.70;99.90;;;;;;5084308;28;20014;-67
2023/06/01 05:19:00;;;;;;;;;;;11.70;99.90;;;;;;5062627;28;19935;-67
2023/06/01 05:21:25;;;;;;;;;;;11.70;99.90;;;;;;5083282;28;19924;-68
2023/06/01 05:23:51;;;;;;;;;;;11.70;99.90;;;;;;5082992;28;20710;-68
2023/06/01 05:26:16;;;;;;;;;;;11.70;99.90;;;;;;5076182;28;20515;-68
2023/06/01 05:28:42;;;;;;;;;;;11.70;99.90;;;;;;5063985;28;19930;-68
2023/06/01 05:31:07;;;;;;;;;;;11.70;99.90;;;;;;5083084;28;19924;-66
2023/06/01 05:33:33;;;;;;;;;;;11.80;99.90;;;;;;5084395;28;19920;-68
2023/06/01 05:35:58;;;;;;;;;;;11.80;99.90;;;;;;5081377;28;20003;-68
2023/06/01 05:38:24;;;;;;;;;;;11.80;99.90;;;;;;5092519;28;19920;-67
2023/06/01 05:40:49;;;;;;;;;;;11.80;99.90;;;;;;5093505;28;19924;-68
2023/06/01 05:43:18;;;;;;;;;;;11.80;99.90;;;;;;5090179;28;19931;-66
2023/06/01 05:45:43;;;;;;;;;;;11.80;99.90;;;;;;5085833;28;20420;-66
2023/06/01 05:48:09;;;;;;;;;;;11.80;99.90;;;;;;5070447;28;19924;-65
2023/06/01 05:50:34;;;;;;;;;;;11.80;99.90;;;;;;5064165;28;19927;-66
2023/06/01 05:53:00;;;;;;;;;;;11.90;99.90;;;;;;5072306;28;19972;-68
2023/06/01 05:55:25;;;;;;;;;;;11.90;99.90;;;;;;5083449;28;20776;-66
2023/06/01 05:57:51;;;;;;;;;;;11.90;99.90;;;;;;5084621;28;19920;-69
2023/06/01 06:00:16;;;;;;;;;;;11.90;99.90;;;;;;5079252;28;20453;-68
2023/06/01 06:02:45;;;;;;;;;;;11.90;99.90;;;;;;5076240;28;19966;-68
2023/06/01 06:05:11;;;;;;;;;;;11.80;99.90;;;;;;5071445;28;19946;-67
2023/06/01 06:07:37;;;;;;;;;;;11.80;99.90;;;;;;5071224;28;19932;-66
2023/06/01 06:10:03;;;;;;;;;;;11.80;99.90;;;;;;5063639;28;19924;-69
2023/06/01 06:12:29;;;;;;;;;;;11.80;99.90;;;;;;5067933;28;19924;-66
2023/06/01 06:14:54;;;;;;;;;;;11.80;99.90;;;;;;5081358;28;19987;-65
2023/06/01 06:17:20;;;;;;;;;;;11.80;99.90;;;;;;5085497;28;19957;-66
2023/06/01 06:19:47;;;;;;;;;;;11.80;99.90;;;;;;5080176;28;19924;-65
2023/06/01 06:22:13;;;;;;;;;;;11.80;99.90;;;;;;5085601;28;19920;-68
2023/06/01 06:24:38;;;;;;;;;;;11.80;99.90;;;;;;5074606;28;20017;-68
2023/06/01 06:27:04;;;;;;;;;;;11.80;99.90;;;;;;5089673;28;20385;-69
2023/06/01 06:29:30;;;;;;;;;;;11.80;99.90;;;;;;5083917;28;19931;-69
2023/06/01 06:31:55;;;;;;;;;;;11.90;99.90;;;;;;5084844;28;19971;-68
2023/06/01 06:34:21;;;;;;;;;;;11.90;99.90;;;;;;5078461;28;19971;-68
2023/06/01 06:36:46;;;;;;;;;;;11.90;99.90;;;;;;5079252;28;19920;-68
2023/06/01 06:39:12;;;;;;;;;;;12.00;99.90;;;;;;5069427;28;19924;-68
2023/06/01 06:41:40;;;;;;;;;;;12.00;99.90;;;;;;5068581;28;19931;-65
2023/06/01 06:44:05;;;;;;;;;;;12.00;99.90;;;;;;5071280;28;20359;-65
2023/06/01 06:46:31;;;;;;;;;;;12.00;99.90;;;;;;5059150;28;19929;-69
2023/06/01 06:48:56;;;;;;;;;;;12.10;99.90;;;;;;5077814;28;19928;-67
2023/06/01 06:51:22;;;;;;;;;;;12.10;99.90;;;;;;5065902;28;19920;-67
2023/06/01 06:53:47;;;;;;;;;;;12.10;99.90;;;;;;5075091;28;20348;-66
2023/06/01 06:56:13;;;;;;;;;;;12.10;99.90;;;;;;5062771;28;20295;-67
2023/06/01 06:58:38;;;;;;;;;;;12.10;99.90;;;;;;5070874;28;19924;-66
2023/06/01 07:01:05;;;;;;;;;;;12.20;99.90;;;;;;5079420;28;20401;-66
2023/06/01 07:03:31;;;;;;;;;;;12.20;99.90;;;;;;5074642;28;19924;-70
2023/06/01 07:05:57;;;;;;;;;;;12.20;99.90;;;;;;5072168;28;19924;-69
2023/06/01 07:08:22;;;;;;;;;;;12.30;99.90;;;;;;5068843;28;19924;-67
2023/06/01 07:10:48;;;;;;;;;;;12.30;99.90;;;;;;5074837;28;19920;-69
2023/06/01 07:13:13;;;;;;;;;;;12.30;99.90;;;;;;5073238;28;19920;-66
2023/06/01 07:15:39;;;;;;;;;;;12.30;99.90;;;;;;5071233;28;20382;-65
2023/06/01 07:18:06;;;;;;;;;;;12.40;99.90;;;;;;5077731;28;20030;-65
2023/06/01 07:20:32;;;;;;;;;;;12.40;99.90;;;;;;5073412;28;20027;-66
2023/06/01 07:22:57;;;;;;;;;;;12.30;99.90;;;;;;5069407;28;20047;-65
2023/06/01 07:25:23;;;;;;;;;;;12.40;99.90;;;;;;5077611;28;19927;-65
2023/06/01 07:27:49;;;;;;;;;;;12.30;99.90;;;;;;5103782;28;19936;-69
2023/06/01 07:30:15;;;;;;;;;;;12.30;99.90;;;;;;5069353;28;19921;-65
2023/06/01 07:32:40;;;;;;;;;;;12.40;99.90;;;;;;5074475;28;19931;-66
2023/06/01 07:35:07;;;;;;;;;;;12.40;99.90;;;;;;5076796;28;19924;-66
2023/06/01 07:37:33;;;;;;;;;;;12.50;99.90;;;;;;5072934;28;19928;-65
2023/06/01 07:39:58;;;;;;;;;;;12.70;99.90;;;;;;5066352;28;20913;-67
2023/06/01 07:42:24;;;;;;;;;;;12.70;99.90;;;;;;5075570;28;19939;-66
2023/06/01 07:44:50;;;;;;;;;;;12.80;99.90;;;;;;5077165;28;19927;-70
2023/06/01 07:47:16;;;;;;;;;;;12.80;99.90;;;;;;5070280;28;20036;-70
2023/06/01 07:49:42;;;;;;;;;;;12.80;99.90;;;;;;5074737;28;19924;-66
2023/06/01 07:52:07;;;;;;;;;;;12.80;99.90;;;;;;5079075;28;19924;-70
2023/06/01 07:54:33;;;;;;;;;;;12.80;99.90;;;;;;5072864;28;20529;-65
2023/06/01 07:56:59;;;;;;;;;;;12.70;99.90;;;;;;5066454;28;20030;-68
2023/06/01 07:59:24;;;;;;;;;;;12.80;99.90;;;;;;5078965;28;19930;-66
2023/06/01 08:01:51;;;;;;;;;;;12.90;99.90;;;;;;5077157;28;19931;-65
2023/06/01 08:04:20;;;;;;;;;;;12.90;99.90;;;;;;5070053;28;19931;-66
2023/06/01 08:06:46;;;;;;;;;;;12.90;99.90;;;;;;5067780;28;20031;-68
2023/06/01 08:09:11;;;;;;;;;;;12.90;99.90;;;;;;5072442;28;20042;-68
2023/06/01 08:11:37;;;;;;;;;;;13.00;99.90;;;;;;5065197;28;19920;-66
2023/06/01 08:14:04;;;;;;;;;;;13.10;99.90;;;;;;5079526;28;19930;-71
2023/06/01 08:16:30;;;;;;;;;;;13.10;99.90;;;;;;5090626;28;20450;-65
2023/06/01 08:18:56;;;;;;;;;;;13.10;99.90;;;;;;5086542;28;19924;-69
2023/06/01 08:21:23;;;;;;;;;;;13.20;99.90;;;;;;5076501;28;20514;-67
2023/06/01 08:23:51;;;;;;;;;;;13.20;99.90;;;;;;5081951;28;19920;-65
2023/06/01 08:26:17;;;;;;;;;;;13.30;99.90;;;;;;5094536;28;19989;-66
2023/06/01 08:28:43;;;;;;;;;;;13.40;99.90;;;;;;5087560;28;20386;-67
2023/06/01 08:31:08;;;;;;;;;;;13.40;99.90;;;;;;5087199;28;20305;-67
2023/06/01 08:33:34;;;;;;;;;;;13.60;99.90;;;;;;5090998;28;20386;-66
2023/06/01 08:35:59;;;;;;;;;;;13.70;99.90;;;;;;5093230;28;19981;-65
2023/06/01 08:38:29;;;;;;;;;;;13.70;99.90;;;;;;5090912;28;20008;-66
2023/06/01 08:40:56;;;;;;;;;;;13.70;99.90;;;;;;5087335;28;19921;-67
2023/06/01 08:43:26;;;;;;;;;;;13.80;99.90;;;;;;5084706;28;20019;-66
2023/06/01 08:45:51;;;;;;;;;;;13.90;99.90;;;;;;5092854;28;19982;-66
2023/06/01 08:48:18;;;;;;;;;;;14.00;99.90;;;;;;5091519;28;19968;-67
2023/06/01 08:50:48;;;;;;;;;;;14.00;99.90;;;;;;5086407;28;19950;-66
2023/06/01 08:53:17;;;;;;;;;;;14.10;99.90;;;;;;5093657;28;20011;-66
2023/06/01 08:55:43;;;;;;;;;;;14.20;99.90;;;;;;5081990;28;19973;-65
2023/06/01 08:58:09;;;;;;;;;;;14.20;99.90;;;;;;5093759;28;19920;-67
2023/06/01 09:00:35;;;;;;;;;;;14.10;99.90;;;;;;5094067;28;19934;-66
2023/06/01 09:03:01;;;;;;;;;;;14.10;99.90;;;;;;5084030;28;19928;-66
2023/06/01 09:05:26;;;;;;;;;;;14.10;99.90;;;;;;5085627;28;19931;-66
2023/06/01 09:07:52;;;;;;;;;;;14.10;99.90;;;;;;5093616;28;19924;-66
2023/06/01 09:10:22;;;;;;;;;;;14.20;99.90;;;;;;5089196;28;19927;-70
2023/06/01 09:12:54;;;;;;;;;;;14.10;99.90;;;;;;5081468;28;19924;-69
2023/06/01 09:15:20;;;;;;;;;;;14.20;99.90;;;;;;5079999;28;19960;-67
2023/06/01 09:17:46;;;;;;;;;;;14.20;99.90;;;;;;5078611;28;19991;-65
2023/06/01 09:20:13;;;;;;;;;;;14.20;99.90;;;;;;5071952;28;19921;-68
2023/06/01 09:22:42;;;;;;;;;;;14.30;99.90;;;;;;5077313;28;19924;-66
2023/06/01 09:25:08;;;;;;;;;;;14.40;99.90;;;;;;5079539;28;19920;-67
2023/06/01 09:27:47;;;;;;;;;;;14.40;99.90;;;;;;5084024;28;20359;-67
2023/06/01 09:30:13;;;;;;;;;;;14.50;99.90;;;;;;5089431;28;19921;-66
2023/06/01 09:32:39;;;;;;;;;;;14.50;99.90;;;;;;5076871;28;19924;-66
2023/06/01 09:35:07;;;;;;;;;;;14.50;99.90;;;;;;5081405;28;19973;-66
2023/06/01 09:37:37;;;;;;;;;;;14.50;99.90;;;;;;5082552;28;20348;-66
2023/06/01 09:40:15;;;;;;;;;;;14.60;99.90;;;;;;5087071;28;20011;-67
2023/06/01 09:42:40;;;;;;;;;;;14.70;99.90;;;;;;5084428;28;19927;-67
2023/06/01 09:45:22;;;;;;;;;;;14.70;99.90;;;;;;5075999;28;19920;-65
2023/06/01 09:47:48;;;;;;;;;;;14.60;99.90;;;;;;5078710;28;19940;-66
2023/06/01 09:50:36;;;;;;;;;;;14.60;99.90;;;;;;5087352;28;19924;-66
2023/06/01 09:53:02;;;;;;;;;;;14.70;99.90;;;;;;5083787;28;19920;-66
2023/06/01 09:55:27;;;;;;;;;;;14.70;99.90;;;;;;5070317;28;19946;-67
2023/06/01 09:58:13;;;;;;;;;;;14.70;99.90;;;;;;5077726;28;20086;-67
2023/06/01 10:00:38;;;;;;;;;;;14.60;99.90;;;;;;5079621;28;20019;-66
2023/06/01 10:03:05;;;;;;;;;;;14.90;99.90;;;;;;5082597;28;20018;-66
2023/06/01 10:05:31;;;;;;;;;;;15.10;99.90;;;;;;5084763;28;19928;-65
2023/06/01 10:07:56;;;;;;;;;;;15.10;99.90;;;;;;5083735;28;20062;-66
2023/06/01 10:10:22;;;;;;;;;;;15.00;99.90;;;;;;5081952;28;20396;-65
2023/06/01 10:12:47;;;;;;;;;;;14.90;99.90;;;;;;5081737;28;20453;-66
2023/06/01 10:15:13;;;;;;;;;;;14.90;99.90;;;;;;5077019;28;19920;-66
2023/06/01 10:17:42;;;;;;;;;;;14.90;99.90;;;;;;5083579;28;19920;-66
2023/06/01 10:20:08;;;;;;;;;;;14.70;99.90;;;;;;5075397;28;19924;-65
2023/06/01 10:22:34;;;;;;;;;;;14.60;99.90;;;;;;5088264;28;19963;-66
2023/06/01 10:25:00;;;;;;;;;;;14.60;99.90;;;;;;5091198;28;19966;-67
2023/06/01 10:27:29;;;;;;;;;;;14.50;99.90;;;;;;5079360;28;19928;-69
2023/06/01 10:29:55;;;;;;;;;;;14.50;99.90;;;;;;5084557;28;19943;-66
2023/06/01 10:32:36;;;;;;;;;;;14.40;99.90;;;;;;5089126;28;20381;-67
2023/06/01 10:35:02;;;;;;;;;;;14.30;99.90;;;;;;5081629;28;20381;-67
2023/06/01 10:37:27;;;;;;;;;;;14.20;99.90;;;;;;5078939;28;20041;-67
2023/06/01 10:39:53;;;;;;;;;;;14.20;99.90;;;;;;5082396;28;20378;-66
2023/06/01 10:42:19;;;;;;;;;;;14.20;99.90;;;;;;5090019;28;19927;-68
2023/06/01 10:44:45;;;;;;;;;;;14.20;99.90;;;;;;5090352;28;20047;-67
2023/06/01 10:47:10;;;;;;;;;;;14.10;99.90;;;;;;5074858;28;19931;-68
2023/06/01 10:49:48;;;;;;;;;;;14.10;99.90;;;;;;5088013;28;19923;-69
2023/06/01 10:52:40;;;;;;;;;;;14.20;99.90;;;;;;5071315;28;19981;-69
2023/06/01 10:55:05;;;;;;;;;;;14.20;99.90;;;;;;5090416;28;19923;-69
2023/06/01 10:57:31;;;;;;;;;;;14.20;99.90;;;;;;5091301;28;19969;-68
2023/06/01 11:00:15;;;;;;;;;;;14.10;99.90;;;;;;5080271;28;19947;-70
2023/06/01 11:02:45;;;;;;;;;;;14.00;99.90;;;;;;5080505;28;19971;-68
2023/06/01 11:05:30;;;;;;;;;;;14.10;99.90;;;;;;5081153;28;20566;-69
2023/06/01 11:07:56;;;;;;;;;;;14.10;99.90;;;;;;5080155;28;20007;-67
2023/06/01 11:10:40;;;;;;;;;;;14.00;99.90;;;;;;5083205;28;20421;-69
2023/06/01 11:13:12;;;;;;;;;;;14.10;99.90;;;;;;5080338;28;20007;-69
2023/06/01 11:15:38;;;;;;;;;;;14.20;99.90;;;;;;5070395;28;20408;-68
2023/06/01 11:18:23;;;;;;;;;;;14.50;99.90;;;;;;5068103;28;20453;-69
2023/06/01 11:20:49;;;;;;;;;;;14.50;99.90;;;;;;5075783;28;19974;-69
2023/06/01 11:23:15;;;;;;;;;;;14.50;99.90;;;;;;5091684;28;19963;-69
2023/06/01 11:25:41;;;;;;;;;;;14.60;99.90;;;;;;5086986;28;19946;-67
2023/06/01 11:28:08;;;;;;;;;;;14.60;99.90;;;;;;5082648;28;19924;-68
2023/06/01 11:30:35;;;;;;;;;;;14.60;99.90;;;;;;5091636;28;19973;-69
2023/06/01 11:33:02;;;;;;;;;;;14.70;99.90;;;;;;5089662;28;19924;-68
2023/06/01 11:35:28;;;;;;;;;;;14.80;99.90;;;;;;5079339;28;20340;-69
2023/06/01 11:37:54;;;;;;;;;;;15.00;99.90;;;;;;5089491;28;19920;-69
2023/06/01 11:40:20;;;;;;;;;;;15.00;99.90;;;;;;5091597;28;19927;-69
2023/06/01 11:42:46;;;;;;;;;;;14.90;99.90;;;;;;5077550;28;19924;-69
2023/06/01 11:45:16;;;;;;;;;;;14.90;99.90;;;;;;5080299;28;19965;-68
2023/06/01 11:47:42;;;;;;;;;;;15.00;99.90;;;;;;5090980;28;20046;-66
2023/06/01 11:50:19;;;;;;;;;;;15.00;99.90;;;;;;5092771;28;19942;-66
2023/06/01 11:52:45;;;;;;;;;;;15.10;99.90;;;;;;5091442;28;19923;-68
2023/06/01 11:55:11;;;;;;;;;;;15.00;99.90;;;;;;5095209;28;19920;-68
2023/06/01 11:57:40;;;;;;;;;;;14.90;99.90;;;;;;5094960;28;19924;-69
2023/06/01 12:00:12;;;;;;;;;;;14.90;99.90;;;;;;5079339;28;19924;-69
2023/06/01 12:02:38;;;;;;;;;;;14.80;99.90;;;;;;5089953;28;19920;-69
2023/06/01 12:05:10;;;;;;;;;;;14.70;99.90;;;;;;5076598;28;20382;-69
2023/06/01 12:07:51;;;;;;;;;;;14.70;99.90;;;;;;5089296;28;19924;-67
2023/06/01 12:10:18;;;;;;;;;;;14.70;99.90;;;;;;5074635;28;20386;-67
2023/06/01 12:12:44;;;;;;;;;;;14.80;99.90;;;;;;5074803;28;20003;-66
2023/06/01 12:15:10;;;;;;;;;;;14.90;99.90;;;;;;5081792;28;20043;-67
2023/06/01 12:17:49;;;;;;;;;;;15.10;99.90;;;;;;5077754;28;19928;-66
2023/06/01 12:20:27;;;;;;;;;;;15.10;99.90;;;;;;5086189;28;20331;-66
2023/06/01 12:22:55;;;;;;;;;;;15.20;99.90;;;;;;5094717;28;19924;-66
2023/06/01 12:25:21;;;;;;;;;;;15.50;99.90;;;;;;5084865;28;20414;-67
2023/06/01 12:28:05;;;;;;;;;;;15.80;99.90;;;;;;5094260;28;19996;-66
2023/06/01 12:30:31;;;;;;;;;;;15.80;99.90;;;;;;5094734;28;19926;-66
2023/06/01 12:32:57;;;;;;;;;;;15.90;99.90;;;;;;5081717;28;19928;-69
2023/06/01 12:35:23;;;;;;;;;;;16.10;99.90;;;;;;5090898;28;19982;-69
2023/06/01 12:38:06;;;;;;;;;;;16.20;99.90;;;;;;5093613;28;19924;-69
2023/06/01 12:40:33;;;;;;;;;;;16.30;99.90;;;;;;5086838;28;19920;-68
2023/06/01 12:42:58;;;;;;;;;;;16.30;99.90;;;;;;5082525;28;19963;-68
2023/06/01 12:45:24;;;;;;;;;;;16.10;99.90;;;;;;5085957;28;19986;-70
2023/06/01 12:47:50;;;;;;;;;;;16.10;99.90;;;;;;5071682;28;19978;-69
2023/06/01 12:50:15;;;;;;;;;;;16.10;99.90;;;;;;5082899;28;19920;-69
2023/06/01 12:52:42;;;;;;;;;;;16.30;99.90;;;;;;5088916;28;19920;-69
2023/06/01 12:55:08;;;;;;;;;;;16.50;99.90;;;;;;5094290;28;19927;-66
2023/06/01 12:57:34;;;;;;;;;;;16.40;99.90;;;;;;5080961;28;19920;-66
2023/06/01 13:00:00;;;;;;;;;;;16.40;99.90;;;;;;5088084;28;19920;-66
2023/06/01 13:02:26;;;;;;;;;;;16.40;99.90;;;;;;5093800;28;19920;-66
2023/06/01 13:04:53;;;;;;;;;;;16.30;99.90;;;;;;5091702;28;19927;-67
2023/06/01 13:07:22;;;;;;;;;;;16.20;99.90;;;;;;5090698;28;19931;-66
2023/06/01 13:09:47;;;;;;;;;;;16.10;99.90;;;;;;5082326;28;19931;-66
2023/06/01 13:12:13;;;;;;;;;;;15.90;99.90;;;;;;5093736;28;19920;-66
2023/06/01 13:14:38;;;;;;;;;;;15.80;99.90;;;;;;5093682;28;19920;-66
2023/06/01 13:17:04;;;;;;;;;;;15.70;99.90;;;;;;5093729;28;19924;-64
2023/06/01 13:19:30;;;;;;;;;;;15.90;99.90;;;;;;5089391;28;19920;-66
2023/06/01 13:21:56;;;;;;;;;;;16.00;99.90;;;;;;5081653;28;19924;-66
2023/06/01 13:24:22;;;;;;;;;;;15.90;99.90;;;;;;5091225;28;19920;-66
2023/06/01 13:26:47;;;;;;;;;;;15.80;99.90;;;;;;5093337;28;19928;-66
2023/06/01 13:29:13;;;;;;;;;;;15.70;99.90;;;;;;5092113;28;19920;-68
2023/06/01 13:31:39;;;;;;;;;;;15.80;99.90;;;;;;5081701;28;19924;-67
2023/06/01 13:34:04;;;;;;;;;;;16.00;99.90;;;;;;5093010;28;19927;-67
2023/06/01 13:36:30;;;;;;;;;;;16.20;99.90;;;;;;5082467;28;19920;-69
2023/06/01 13:38:57;;;;;;;;;;;16.20;99.90;;;;;;5082267;28;20275;-67
2023/06/01 13:41:23;;;;;;;;;;;16.40;99.90;;;;;;5083615;28;19926;-67
2023/06/01 13:43:48;;;;;;;;;;;16.40;99.90;;;;;;5085805;28;20015;-71
2023/06/01 13:46:15;;;;;;;;;;;16.50;99.90;;;;;;5075832;28;20357;-69
2023/06/01 13:48:40;;;;;;;;;;;16.50;99.90;;;;;;5076095;28;20336;-70
2023/06/01 13:51:06;;;;;;;;;;;16.50;99.90;;;;;;5072021;28;19920;-67
2023/06/01 13:53:31;;;;;;;;;;;16.30;99.90;;;;;;5074962;28;20374;-66
2023/06/01 13:55:58;;;;;;;;;;;16.50;99.90;;;;;;5073504;28;19928;-66
2023/06/01 13:58:24;;;;;;;;;;;16.50;99.90;;;;;;5066679;28;19928;-66
2023/06/01 14:00:50;;;;;;;;;;;16.50;99.90;;;;;;5076500;28;19974;-66
2023/06/01 14:03:15;;;;;;;;;;;16.40;99.90;;;;;;5082231;28;19920;-68
2023/06/01 14:05:41;;;;;;;;;;;16.70;99.90;;;;;;5061340;28;19931;-69
2023/06/01 14:08:07;;;;;;;;;;;16.70;99.90;;;;;;5073510;28;19932;-68
2023/06/01 14:10:35;;;;;;;;;;;16.60;99.90;;;;;;5085795;28;21549;-67
2023/06/01 14:13:01;;;;;;;;;;;16.40;99.90;;;;;;5077869;28;20011;-68
2023/06/01 14:15:27;;;;;;;;;;;16.30;99.90;;;;;;5088397;28;20459;-69